METAR & TAF Report
Available data for CYAM from the past 6 hours
SAULT STE MARIE, ON
Metar
CYAM 181547Z 03002KT 20SM FEW010 FEW022TCU BKN053 BKN078 BKN280 M03/M06 A3026 RMK CF1TCU1SC5AC1CI1 CF TR CI TR SLP260
TAF
TAF CYAM 181338Z 1814/1902 VRB03KT 6SM -SN SCT015 BKN030 TEMPO 1814/1820 11/2SM -SHSN OVC015 BECMG 1816/1818 30008KT FM182000 30008KT P6SM FEW030 BECMG 1822/1824 VRB03KT RMK NXT FCST BY 182000Z
NOTAM

Click here for NOTAMs.